Time;durP1;ratioP1;P1;durP2;ratioP2;P2;SDS_P1;SDS_P2;PMS_P1;PMS_P2;Temp;Humidity;BMP_temperature;BMP_pressure;BME280_temperature;BME280_humidity;BME280_pressure;Samples;Min_cycle;Max_cycle;Signal;HPM_P1;HPM_P2
2021/06/16 00:01:49;;;;;;;0.50;0.33;;;;;;;;;;6215858;23;20424;-52
2021/06/16 00:04:16;;;;;;;1.60;0.50;;;;;;;;;;6215869;23;20003;-52
2021/06/16 00:06:43;;;;;;;0.80;0.40;;;;;;;;;;6215945;23;20005;-52
2021/06/16 00:09:10;;;;;;;0.40;0.40;;;;;;;;;;6215934;23;20001;-52
2021/06/16 00:11:36;;;;;;;0.97;0.70;;;;;;;;;;6215699;23;20040;-51
2021/06/16 00:14:04;;;;;;;1.43;0.60;;;;;;;;;;6215732;23;20008;-52
2021/06/16 00:16:31;;;;;;;0.30;0.30;;;;;;;;;;6215627;23;20016;-52
2021/06/16 00:18:58;;;;;;;0.40;0.40;;;;;;;;;;6215752;23;20071;-52
2021/06/16 00:21:24;;;;;;;3.80;0.70;;;;;;;;;;6215671;23;19997;-52
2021/06/16 00:23:51;;;;;;;1.60;0.90;;;;;;;;;;6215661;23;20367;-52
2021/06/16 00:26:18;;;;;;;1.13;0.70;;;;;;;;;;6215649;23;20341;-51
2021/06/16 00:28:45;;;;;;;1.13;0.73;;;;;;;;;;6215596;23;20016;-52
2021/06/16 00:31:23;;;;;;;0.90;0.67;;;;;;;;;;6215644;23;20174;-51
2021/06/16 00:33:58;;;;;;;1.23;0.63;;;;;;;;;;6215520;23;20451;-52
2021/06/16 00:36:28;;;;;;;2.80;0.73;;;;;;;;;;6215517;23;20087;-52
2021/06/16 00:39:03;;;;;;;3.23;0.80;;;;;;;;;;6215584;23;20004;-52
2021/06/16 00:41:44;;;;;;;1.30;0.70;;;;;;;;;;6215628;23;20000;-52
2021/06/16 00:44:15;;;;;;;2.03;0.80;;;;;;;;;;6213344;23;20428;-51
2021/06/16 00:46:51;;;;;;;0.40;0.40;;;;;;;;;;6215232;23;20079;-52
2021/06/16 00:49:28;;;;;;;1.80;0.57;;;;;;;;;;6215648;23;20009;-52
2021/06/16 00:51:56;;;;;;;1.30;0.67;;;;;;;;;;6213966;23;20015;-52
2021/06/16 00:54:33;;;;;;;1.43;0.70;;;;;;;;;;6215394;23;20012;-52
2021/06/16 00:57:07;;;;;;;2.40;0.70;;;;;;;;;;6215358;23;20176;-52
2021/06/16 00:59:38;;;;;;;1.27;0.63;;;;;;;;;;6209040;23;20095;-52
2021/06/16 01:02:05;;;;;;;2.40;0.70;;;;;;;;;;6215436;23;20054;-51
2021/06/16 01:04:44;;;;;;;3.93;2.00;;;;;;;;;;6215422;23;20004;-51
2021/06/16 01:07:23;;;;;;;3.73;1.93;;;;;;;;;;6215171;23;20019;-51
2021/06/16 01:09:50;;;;;;;3.47;1.70;;;;;;;;;;6215567;23;20123;-52
2021/06/16 01:12:24;;;;;;;3.63;1.90;;;;;;;;;;6215262;23;20439;-52
2021/06/16 01:14:52;;;;;;;3.03;1.47;;;;;;;;;;6215239;23;20005;-51
2021/06/16 01:17:26;;;;;;;3.23;2.03;;;;;;;;;;6213509;23;20519;-51
2021/06/16 01:20:22;;;;;;;1.83;1.10;;;;;;;;;;6213618;23;20009;-51
2021/06/16 01:23:03;;;;;;;2.13;0.70;;;;;;;;;;6211259;23;20055;-51
2021/06/16 01:25:50;;;;;;;1.17;0.70;;;;;;;;;;6215181;23;20005;-52
2021/06/16 01:28:19;;;;;;;1.00;0.70;;;;;;;;;;6215309;23;20084;-51
2021/06/16 01:30:48;;;;;;;3.60;0.63;;;;;;;;;;6215029;23;20331;-51
2021/06/16 01:33:17;;;;;;;2.10;0.87;;;;;;;;;;6215205;23;20013;-52
2021/06/16 01:35:47;;;;;;;2.00;0.90;;;;;;;;;;6215413;23;20005;-51
2021/06/16 01:38:15;;;;;;;1.17;0.80;;;;;;;;;;6215334;23;20012;-51
2021/06/16 01:40:43;;;;;;;4.40;0.70;;;;;;;;;;6215116;23;20001;-51
2021/06/16 01:43:16;;;;;;;4.00;1.10;;;;;;;;;;6215231;23;20062;-52
2021/06/16 01:45:48;;;;;;;1.33;0.70;;;;;;;;;;6215091;23;20096;-52
2021/06/16 01:48:17;;;;;;;0.70;0.40;;;;;;;;;;6214232;23;20042;-52
2021/06/16 01:50:45;;;;;;;1.20;0.70;;;;;;;;;;6214945;23;20023;-51
2021/06/16 01:53:13;;;;;;;1.93;0.60;;;;;;;;;;6215108;23;20005;-52
2021/06/16 01:55:40;;;;;;;4.07;1.07;;;;;;;;;;6215164;23;20004;-52
2021/06/16 01:58:08;;;;;;;1.30;0.70;;;;;;;;;;6214933;23;20462;-51
2021/06/16 02:00:36;;;;;;;1.90;0.97;;;;;;;;;;6214629;23;20043;-52
2021/06/16 02:03:03;;;;;;;0.87;0.80;;;;;;;;;;6215001;23;20004;-51
2021/06/16 02:05:31;;;;;;;3.47;1.37;;;;;;;;;;6214930;23;20001;-51
2021/06/16 02:08:05;;;;;;;1.80;0.53;;;;;;;;;;6214904;23;20004;-52
2021/06/16 02:10:34;;;;;;;1.55;0.70;;;;;;;;;;6216273;23;20027;-51
2021/06/16 02:13:02;;;;;;;2.90;0.70;;;;;;;;;;6216887;23;20329;-51
2021/06/16 02:15:35;;;;;;;2.87;0.53;;;;;;;;;;6216871;23;20009;-51
2021/06/16 02:18:03;;;;;;;1.53;0.70;;;;;;;;;;6216808;23;20009;-52
2021/06/16 02:20:34;;;;;;;4.23;0.60;;;;;;;;;;6216817;23;20019;-52
2021/06/16 02:23:01;;;;;;;4.00;0.77;;;;;;;;;;6216505;23;20000;-51
2021/06/16 02:25:28;;;;;;;2.20;1.20;;;;;;;;;;6216790;23;20008;-51
2021/06/16 02:27:55;;;;;;;5.80;1.10;;;;;;;;;;6216846;23;20001;-52
2021/06/16 02:30:22;;;;;;;2.20;1.07;;;;;;;;;;6216784;23;20016;-51
2021/06/16 02:32:49;;;;;;;1.40;1.00;;;;;;;;;;6216837;23;20004;-51
2021/06/16 02:35:16;;;;;;;1.50;0.80;;;;;;;;;;6216684;23;20063;-51
2021/06/16 02:37:45;;;;;;;3.37;0.80;;;;;;;;;;6216627;23;20017;-51
2021/06/16 02:40:14;;;;;;;2.83;1.03;;;;;;;;;;6216624;23;20031;-52
2021/06/16 02:42:41;;;;;;;1.20;0.90;;;;;;;;;;6216758;23;20005;-51
2021/06/16 02:45:09;;;;;;;1.67;0.87;;;;;;;;;;6215037;23;20005;-52
2021/06/16 02:47:39;;;;;;;2.57;1.33;;;;;;;;;;6216731;23;20131;-51
2021/06/16 02:50:07;;;;;;;2.90;1.07;;;;;;;;;;6216640;23;20316;-52
2021/06/16 02:52:36;;;;;;;2.07;1.20;;;;;;;;;;6216612;23;20012;-51
2021/06/16 02:55:06;;;;;;;2.63;1.47;;;;;;;;;;6216567;23;20011;-52
2021/06/16 02:57:33;;;;;;;2.63;1.50;;;;;;;;;;6216919;23;20016;-51
2021/06/16 03:00:02;;;;;;;3.60;2.20;;;;;;;;;;6216101;23;20019;-52
2021/06/16 03:02:29;;;;;;;4.00;1.90;;;;;;;;;;6216498;23;20440;-51
2021/06/16 03:04:57;;;;;;;2.63;1.63;;;;;;;;;;6216409;23;20004;-52
2021/06/16 03:07:25;;;;;;;7.43;1.60;;;;;;;;;;6216384;23;20062;-51
2021/06/16 03:09:52;;;;;;;3.20;1.50;;;;;;;;;;6216366;23;20463;-51
2021/06/16 03:12:21;;;;;;;1.83;1.10;;;;;;;;;;6216498;23;20004;-52
2021/06/16 03:14:49;;;;;;;8.27;1.40;;;;;;;;;;6216299;23;20004;-51
2021/06/16 03:17:17;;;;;;;2.53;1.20;;;;;;;;;;6216293;23;20092;-51
2021/06/16 03:19:45;;;;;;;2.63;1.10;;;;;;;;;;6216239;23;20355;-51
2021/06/16 03:22:12;;;;;;;1.83;1.10;;;;;;;;;;6216156;23;20328;-52
2021/06/16 03:24:46;;;;;;;4.77;1.40;;;;;;;;;;6216247;23;20001;-51
2021/06/16 03:27:14;;;;;;;3.22;0.70;;;;;;;;;;6216229;23;20059;-52
2021/06/16 03:29:41;;;;;;;1.63;0.73;;;;;;;;;;6216181;23;20005;-51
2021/06/16 03:32:08;;;;;;;0.90;0.60;;;;;;;;;;6216381;23;20028;-52
2021/06/16 03:34:38;;;;;;;3.23;1.27;;;;;;;;;;6216134;23;20008;-51
2021/06/16 03:37:06;;;;;;;2.70;0.97;;;;;;;;;;6214211;23;20051;-52
2021/06/16 03:39:33;;;;;;;5.57;1.20;;;;;;;;;;6215937;23;20119;-51
2021/06/16 03:42:00;;;;;;;1.87;1.00;;;;;;;;;;6215896;23;20069;-52
2021/06/16 03:44:28;;;;;;;2.50;0.90;;;;;;;;;;6215775;23;20070;-52
2021/06/16 03:46:55;;;;;;;2.30;0.87;;;;;;;;;;6215966;23;20047;-52
2021/06/16 03:49:23;;;;;;;2.50;1.20;;;;;;;;;;6215713;23;20028;-51
2021/06/16 03:51:50;;;;;;;3.93;1.07;;;;;;;;;;6215771;23;20005;-51
2021/06/16 03:54:17;;;;;;;2.77;1.03;;;;;;;;;;6215690;23;20005;-52
2021/06/16 03:56:44;;;;;;;2.57;1.10;;;;;;;;;;6215696;23;20019;-52
2021/06/16 03:59:12;;;;;;;2.33;0.80;;;;;;;;;;6215433;22;20340;-51
2021/06/16 04:01:40;;;;;;;2.93;1.13;;;;;;;;;;6215806;23;20068;-51
2021/06/16 04:04:10;;;;;;;1.73;1.10;;;;;;;;;;6216107;23;20059;-51
2021/06/16 04:06:38;;;;;;;5.17;0.90;;;;;;;;;;6215670;23;20309;-51
2021/06/16 04:09:05;;;;;;;0.93;0.67;;;;;;;;;;6215563;23;20092;-52
2021/06/16 04:11:32;;;;;;;2.23;1.03;;;;;;;;;;6215591;23;20084;-51
2021/06/16 04:14:00;;;;;;;4.93;1.10;;;;;;;;;;6215659;23;20359;-51
2021/06/16 04:16:27;;;;;;;1.37;0.87;;;;;;;;;;6215698;23;20083;-51
2021/06/16 04:18:54;;;;;;;1.57;0.60;;;;;;;;;;6215675;23;20008;-51
2021/06/16 04:21:21;;;;;;;3.10;0.90;;;;;;;;;;6215701;23;20012;-52
2021/06/16 04:23:48;;;;;;;1.40;0.70;;;;;;;;;;6215700;23;20364;-52
2021/06/16 04:26:18;;;;;;;0.73;0.50;;;;;;;;;;6215630;23;20000;-52
2021/06/16 04:28:46;;;;;;;2.50;0.60;;;;;;;;;;6215587;23;20011;-51
2021/06/16 04:31:13;;;;;;;1.33;0.70;;;;;;;;;;6215444;23;20005;-52
2021/06/16 04:33:40;;;;;;;0.90;0.47;;;;;;;;;;6215392;23;20020;-51
2021/06/16 04:36:07;;;;;;;1.17;0.63;;;;;;;;;;6215320;23;20005;-52
2021/06/16 04:38:34;;;;;;;0.87;0.60;;;;;;;;;;6215672;23;20055;-52
2021/06/16 04:41:02;;;;;;;0.83;0.70;;;;;;;;;;6215600;23;20047;-52
2021/06/16 04:43:29;;;;;;;0.67;0.40;;;;;;;;;;6215627;23;20004;-51
2021/06/16 04:45:56;;;;;;;3.03;0.60;;;;;;;;;;6215579;23;20069;-51
2021/06/16 04:48:23;;;;;;;0.77;0.50;;;;;;;;;;6215484;23;20010;-51
2021/06/16 04:50:50;;;;;;;2.93;0.60;;;;;;;;;;6215439;23;20015;-52
2021/06/16 04:53:16;;;;;;;0.70;0.30;;;;;;;;;;6215521;23;20428;-52
2021/06/16 04:55:43;;;;;;;0.53;0.40;;;;;;;;;;6215406;23;20495;-52
2021/06/16 04:58:10;;;;;;;0.77;0.60;;;;;;;;;;6215311;23;20039;-51
2021/06/16 05:00:37;;;;;;;1.57;0.67;;;;;;;;;;6215078;22;20028;-51
2021/06/16 05:03:03;;;;;;;1.73;0.80;;;;;;;;;;6215369;23;20000;-52
2021/06/16 05:05:30;;;;;;;2.47;0.70;;;;;;;;;;6215667;23;20005;-51
2021/06/16 05:07:57;;;;;;;3.30;0.70;;;;;;;;;;6215380;23;20005;-51
2021/06/16 05:10:24;;;;;;;1.10;0.70;;;;;;;;;;6215203;23;20015;-51
2021/06/16 05:12:51;;;;;;;1.63;0.80;;;;;;;;;;6215409;23;20131;-51
2021/06/16 05:15:18;;;;;;;1.57;0.73;;;;;;;;;;6215326;23;20332;-51
2021/06/16 05:17:46;;;;;;;3.37;0.80;;;;;;;;;;6215279;23;20046;-51
2021/06/16 05:20:13;;;;;;;0.77;0.43;;;;;;;;;;6215298;23;20000;-52
2021/06/16 05:22:40;;;;;;;4.50;0.90;;;;;;;;;;6215226;23;20032;-52
2021/06/16 05:25:08;;;;;;;1.40;0.60;;;;;;;;;;6215210;23;20009;-51
2021/06/16 05:27:35;;;;;;;1.03;0.70;;;;;;;;;;6215289;23;20060;-51
2021/06/16 05:30:03;;;;;;;2.07;0.57;;;;;;;;;;6215223;23;20004;-51
2021/06/16 05:32:30;;;;;;;2.53;0.57;;;;;;;;;;6215274;23;20005;-52
2021/06/16 05:34:57;;;;;;;6.33;0.70;;;;;;;;;;6215482;23;20013;-51
2021/06/16 05:37:24;;;;;;;0.90;0.50;;;;;;;;;;6215050;23;20013;-52
2021/06/16 05:39:51;;;;;;;4.80;1.10;;;;;;;;;;6215004;23;20001;-51
2021/06/16 05:42:18;;;;;;;0.60;0.53;;;;;;;;;;6215109;23;20012;-51
2021/06/16 05:44:45;;;;;;;0.97;0.60;;;;;;;;;;6215805;23;20001;-51
2021/06/16 05:47:12;;;;;;;2.93;0.90;;;;;;;;;;6217118;23;19997;-53
2021/06/16 05:49:39;;;;;;;1.33;0.80;;;;;;;;;;6217017;23;20063;-52
2021/06/16 05:52:05;;;;;;;0.93;0.60;;;;;;;;;;6217179;23;20001;-52
2021/06/16 05:54:32;;;;;;;1.17;0.80;;;;;;;;;;6217109;23;20071;-51
2021/06/16 05:57:00;;;;;;;2.33;0.90;;;;;;;;;;6217131;23;20018;-52
2021/06/16 05:59:27;;;;;;;1.63;0.93;;;;;;;;;;6216649;23;20360;-51
2021/06/16 06:01:54;;;;;;;1.47;1.00;;;;;;;;;;6217184;23;20424;-51
2021/06/16 06:04:20;;;;;;;3.00;0.70;;;;;;;;;;6216996;23;20353;-51
2021/06/16 06:06:48;;;;;;;1.80;1.00;;;;;;;;;;6217132;23;20083;-51
2021/06/16 06:09:15;;;;;;;3.03;0.70;;;;;;;;;;6217030;23;20000;-51
2021/06/16 06:11:42;;;;;;;1.20;0.63;;;;;;;;;;6216912;23;20001;-51
2021/06/16 06:14:08;;;;;;;1.60;0.70;;;;;;;;;;6217023;23;20007;-51
2021/06/16 06:16:35;;;;;;;0.87;0.57;;;;;;;;;;6216814;23;20017;-51
2021/06/16 06:19:02;;;;;;;1.77;0.67;;;;;;;;;;6216906;23;20000;-52
2021/06/16 06:21:32;;;;;;;3.27;1.53;;;;;;;;;;6216892;23;20001;-51
2021/06/16 06:24:00;;;;;;;1.10;0.60;;;;;;;;;;6216840;23;20325;-51
2021/06/16 06:26:27;;;;;;;1.77;0.60;;;;;;;;;;6216759;23;20005;-52
2021/06/16 06:28:54;;;;;;;0.67;0.43;;;;;;;;;;6217114;23;20325;-52
2021/06/16 06:31:21;;;;;;;2.20;0.53;;;;;;;;;;6216917;23;20012;-52
2021/06/16 06:33:48;;;;;;;1.50;0.60;;;;;;;;;;6216870;23;20001;-52
2021/06/16 06:36:15;;;;;;;1.63;0.40;;;;;;;;;;6216633;23;20001;-52
2021/06/16 06:38:42;;;;;;;2.70;0.50;;;;;;;;;;6216798;23;20015;-51
2021/06/16 06:41:15;;;;;;;1.00;0.50;;;;;;;;;;6216750;23;20231;-52
2021/06/16 06:43:42;;;;;;;2.10;0.50;;;;;;;;;;6216757;23;20025;-52
2021/06/16 06:46:09;;;;;;;0.90;0.30;;;;;;;;;;6216783;23;20012;-52
2021/06/16 06:48:36;;;;;;;1.60;0.30;;;;;;;;;;6215187;23;20008;-52
2021/06/16 06:51:03;;;;;;;0.37;0.20;;;;;;;;;;6216513;23;20395;-52
2021/06/16 06:53:29;;;;;;;0.57;0.20;;;;;;;;;;6216657;23;20004;-53
2021/06/16 06:55:59;;;;;;;0.20;0.20;;;;;;;;;;6216094;23;20008;-52
2021/06/16 06:58:26;;;;;;;0.10;0.10;;;;;;;;;;6216405;23;20008;-53
2021/06/16 07:00:53;;;;;;;0.80;0.40;;;;;;;;;;6216176;23;20016;-54
2021/06/16 07:03:20;;;;;;;0.43;0.40;;;;;;;;;;6216432;23;20009;-53
2021/06/16 07:05:46;;;;;;;1.20;0.57;;;;;;;;;;6216499;23;20000;-53
2021/06/16 07:08:13;;;;;;;11.00;1.90;;;;;;;;;;6216487;23;20175;-53
2021/06/16 07:10:40;;;;;;;0.90;0.60;;;;;;;;;;6216415;23;20047;-53
2021/06/16 07:13:07;;;;;;;1.27;0.60;;;;;;;;;;6216407;23;20001;-54
2021/06/16 07:15:33;;;;;;;2.50;0.63;;;;;;;;;;6216485;23;20066;-53
2021/06/16 07:18:00;;;;;;;1.20;0.40;;;;;;;;;;6216285;23;20020;-53
2021/06/16 07:20:27;;;;;;;0.83;0.40;;;;;;;;;;6216340;23;20083;-53
2021/06/16 07:22:54;;;;;;;0.67;0.50;;;;;;;;;;6216317;23;20019;-53
2021/06/16 07:25:21;;;;;;;1.60;0.30;;;;;;;;;;6216409;23;20000;-53
2021/06/16 07:27:48;;;;;;;2.33;0.60;;;;;;;;;;6216179;23;20032;-53
2021/06/16 07:30:16;;;;;;;0.63;0.53;;;;;;;;;;6216115;23;20066;-53
2021/06/16 07:32:43;;;;;;;2.03;0.70;;;;;;;;;;6216347;23;20036;-53
2021/06/16 07:35:10;;;;;;;1.37;0.80;;;;;;;;;;6216171;23;20009;-53
2021/06/16 07:37:38;;;;;;;0.80;0.50;;;;;;;;;;6215944;23;20013;-53
2021/06/16 07:40:08;;;;;;;3.10;0.60;;;;;;;;;;6216045;23;20004;-53
2021/06/16 07:42:35;;;;;;;2.73;0.60;;;;;;;;;;6216132;23;20046;-53
2021/06/16 07:45:02;;;;;;;1.13;0.70;;;;;;;;;;6216049;23;20001;-53
2021/06/16 07:47:29;;;;;;;2.40;0.57;;;;;;;;;;6216067;23;20015;-53
2021/06/16 07:49:56;;;;;;;2.80;0.53;;;;;;;;;;6216048;23;20001;-53
2021/06/16 07:52:22;;;;;;;1.47;0.60;;;;;;;;;;6216538;23;20009;-53
2021/06/16 07:54:49;;;;;;;1.53;0.50;;;;;;;;;;6216187;23;20075;-53
2021/06/16 07:57:16;;;;;;;0.97;0.60;;;;;;;;;;6215836;23;20012;-53
2021/06/16 07:59:43;;;;;;;1.80;0.70;;;;;;;;;;6215556;23;20027;-53
2021/06/16 08:02:10;;;;;;;0.60;0.43;;;;;;;;;;6215976;23;20008;-53
2021/06/16 08:04:40;;;;;;;2.27;0.67;;;;;;;;;;6215915;23;20003;-52
2021/06/16 08:07:10;;;;;;;3.00;0.50;;;;;;;;;;6215340;23;20372;-52
2021/06/16 08:09:40;;;;;;;1.20;0.60;;;;;;;;;;6215704;23;20023;-52
2021/06/16 08:12:09;;;;;;;0.50;0.30;;;;;;;;;;6215823;23;20008;-52
2021/06/16 08:14:35;;;;;;;1.43;0.67;;;;;;;;;;6216186;23;20251;-52
2021/06/16 08:17:04;;;;;;;4.43;0.70;;;;;;;;;;6215666;23;20023;-53
2021/06/16 08:19:31;;;;;;;0.53;0.43;;;;;;;;;;6215704;23;20078;-52
2021/06/16 08:21:58;;;;;;;0.83;0.63;;;;;;;;;;6215841;23;20008;-53
2021/06/16 08:24:25;;;;;;;4.70;0.50;;;;;;;;;;6216256;23;20007;-52
2021/06/16 08:26:52;;;;;;;2.43;0.80;;;;;;;;;;6215734;23;20384;-52
2021/06/16 08:29:19;;;;;;;1.33;0.87;;;;;;;;;;6215721;23;20019;-52
2021/06/16 08:31:46;;;;;;;1.37;0.60;;;;;;;;;;6215702;23;20371;-52
2021/06/16 08:34:13;;;;;;;0.60;0.47;;;;;;;;;;6215730;23;20011;-52
2021/06/16 08:36:41;;;;;;;0.70;0.40;;;;;;;;;;6215630;23;20034;-53
2021/06/16 08:39:08;;;;;;;1.90;0.57;;;;;;;;;;6215469;23;20083;-52
2021/06/16 08:41:35;;;;;;;0.20;0.20;;;;;;;;;;6215498;23;20009;-52
2021/06/16 08:44:02;;;;;;;0.47;0.17;;;;;;;;;;6215463;23;20004;-52
2021/06/16 08:46:31;;;;;;;0.90;0.47;;;;;;;;;;6215661;23;20007;-52
2021/06/16 08:48:58;;;;;;;0.23;0.23;;;;;;;;;;6215587;23;20011;-53
2021/06/16 08:51:25;;;;;;;1.23;0.27;;;;;;;;;;6215447;23;20011;-52
2021/06/16 08:53:51;;;;;;;0.53;0.30;;;;;;;;;;6215632;23;20475;-52
2021/06/16 08:56:18;;;;;;;0.30;0.20;;;;;;;;;;6215553;23;20007;-52
2021/06/16 08:58:45;;;;;;;0.60;0.30;;;;;;;;;;6215368;23;20055;-53
2021/06/16 09:01:12;;;;;;;1.07;0.20;;;;;;;;;;6215213;22;20017;-53
2021/06/16 09:03:39;;;;;;;0.47;0.20;;;;;;;;;;6215462;23;20059;-52
2021/06/16 09:06:07;;;;;;;0.63;0.30;;;;;;;;;;6215319;23;20005;-52
2021/06/16 09:08:50;;;;;;;2.80;0.70;;;;;;;;;;6215759;23;20372;-52
2021/06/16 09:11:17;;;;;;;0.20;0.10;;;;;;;;;;6215381;23;20004;-52
2021/06/16 09:13:43;;;;;;;4.27;0.33;;;;;;;;;;6215361;23;20075;-52
2021/06/16 09:16:27;;;;;;;1.00;0.20;;;;;;;;;;6215225;23;20005;-52
2021/06/16 09:18:53;;;;;;;0.00;0.00;;;;;;;;;;6215252;23;20011;-52
2021/06/16 09:21:33;;;;;;;0.00;0.00;;;;;;;;;;6215288;23;20334;-52
2021/06/16 09:24:00;;;;;;;0.20;0.00;;;;;;;;;;6215350;23;20337;-52
2021/06/16 09:26:31;;;;;;;0.00;0.00;;;;;;;;;;6215354;23;20000;-52
2021/06/16 09:28:58;;;;;;;1.60;0.10;;;;;;;;;;6215351;23;20011;-52
2021/06/16 09:31:25;;;;;;;0.00;0.00;;;;;;;;;;6215215;23;20000;-52
2021/06/16 09:33:54;;;;;;;0.53;0.10;;;;;;;;;;6215243;23;20019;-52
2021/06/16 09:36:23;;;;;;;0.43;0.00;;;;;;;;;;6215132;23;20336;-52
2021/06/16 09:38:50;;;;;;;0.20;0.00;;;;;;;;;;6215307;23;20028;-58
2021/06/16 09:41:21;;;;;;;1.57;0.17;;;;;;;;;;6215259;23;20066;-52
2021/06/16 09:43:49;;;;;;;0.80;0.20;;;;;;;;;;6215411;23;20080;-52
2021/06/16 09:46:16;;;;;;;0.37;0.13;;;;;;;;;;6215114;23;20050;-52
2021/06/16 09:48:44;;;;;;;0.53;0.20;;;;;;;;;;6215333;23;20111;-52
2021/06/16 09:51:22;;;;;;;0.10;0.10;;;;;;;;;;6215039;23;20096;-52
2021/06/16 09:53:55;;;;;;;0.97;0.10;;;;;;;;;;6215184;23;20375;-52
2021/06/16 09:56:21;;;;;;;0.00;0.00;;;;;;;;;;6215009;23;20059;-52
2021/06/16 09:58:48;;;;;;;0.00;0.00;;;;;;;;;;6215188;23;20009;-52
2021/06/16 10:01:15;;;;;;;0.30;0.10;;;;;;;;;;6214736;22;20021;-52
2021/06/16 10:03:42;;;;;;;0.07;0.00;;;;;;;;;;6215248;23;20032;-52
2021/06/16 10:06:13;;;;;;;0.60;0.30;;;;;;;;;;6215323;23;20424;-52
2021/06/16 10:08:44;;;;;;;0.13;0.10;;;;;;;;;;6215200;23;20000;-52
2021/06/16 10:11:16;;;;;;;1.00;0.13;;;;;;;;;;6215028;23;20321;-52
2021/06/16 10:13:43;;;;;;;0.10;0.00;;;;;;;;;;6215000;23;20009;-52
2021/06/16 10:16:10;;;;;;;0.77;0.10;;;;;;;;;;6214957;23;20047;-52
2021/06/16 10:18:44;;;;;;;2.30;0.30;;;;;;;;;;6215018;23;20063;-52
2021/06/16 10:21:12;;;;;;;7.47;0.93;;;;;;;;;;6214906;23;20007;-52
2021/06/16 10:23:39;;;;;;;1.17;0.20;;;;;;;;;;6214926;23;20336;-52
2021/06/16 10:26:07;;;;;;;0.60;0.30;;;;;;;;;;6214900;23;20005;-52
2021/06/16 10:28:54;;;;;;;1.57;0.50;;;;;;;;;;6215200;23;20005;-52
2021/06/16 10:31:21;;;;;;;0.93;0.30;;;;;;;;;;6215992;23;20001;-52
2021/06/16 10:33:58;;;;;;;1.10;0.33;;;;;;;;;;6216871;23;20071;-52
2021/06/16 10:36:25;;;;;;;2.73;0.50;;;;;;;;;;6216594;23;20008;-52
2021/06/16 10:38:58;;;;;;;0.27;0.20;;;;;;;;;;6216919;23;20027;-52
2021/06/16 10:41:40;;;;;;;0.43;0.27;;;;;;;;;;6216672;23;20046;-52
2021/06/16 10:44:11;;;;;;;0.40;0.20;;;;;;;;;;6217047;23;20066;-52
2021/06/16 10:46:57;;;;;;;0.80;0.40;;;;;;;;;;6217170;23;20020;-52
2021/06/16 10:49:43;;;;;;;0.70;0.33;;;;;;;;;;6216521;23;20030;-52
2021/06/16 10:52:10;;;;;;;2.60;0.40;;;;;;;;;;6216653;23;20076;-52
2021/06/16 10:54:37;;;;;;;0.77;0.33;;;;;;;;;;6216548;23;20007;-52
2021/06/16 10:57:12;;;;;;;0.43;0.20;;;;;;;;;;6216494;23;20441;-52
2021/06/16 10:59:48;;;;;;;2.55;0.40;;;;;;;;;;6216100;22;20012;-53
2021/06/16 11:02:17;;;;;;;0.60;0.20;;;;;;;;;;6216564;23;20005;-52
2021/06/16 11:04:44;;;;;;;0.87;0.30;;;;;;;;;;6216456;23;20011;-52
2021/06/16 11:07:29;;;;;;;1.37;0.20;;;;;;;;;;6216656;23;20360;-52
2021/06/16 11:09:57;;;;;;;1.17;0.43;;;;;;;;;;6216390;23;20104;-52
2021/06/16 11:12:34;;;;;;;12.80;1.10;;;;;;;;;;6216412;23;20004;-52
2021/06/16 11:15:02;;;;;;;1.83;0.60;;;;;;;;;;6216474;23;20427;-52
2021/06/16 11:17:29;;;;;;;2.23;0.43;;;;;;;;;;6216328;23;20008;-52
2021/06/16 11:19:56;;;;;;;1.87;0.43;;;;;;;;;;6216288;23;20012;-52
2021/06/16 11:22:29;;;;;;;0.67;0.40;;;;;;;;;;6216328;23;20409;-52
2021/06/16 11:25:09;;;;;;;1.90;0.40;;;;;;;;;;6216337;23;20417;-52
2021/06/16 11:27:52;;;;;;;1.20;0.60;;;;;;;;;;6216201;23;20067;-52
2021/06/16 11:30:24;;;;;;;2.43;0.50;;;;;;;;;;6216217;23;20046;-52
2021/06/16 11:33:09;;;;;;;0.20;0.20;;;;;;;;;;6216163;23;20027;-52
2021/06/16 11:35:40;;;;;;;0.38;0.30;;;;;;;;;;6216155;23;20025;-52
2021/06/16 11:38:07;;;;;;;0.53;0.33;;;;;;;;;;6216135;23;20013;-52
2021/06/16 11:40:34;;;;;;;0.83;0.47;;;;;;;;;;6216212;23;20043;-52
2021/06/16 11:43:01;;;;;;;0.97;0.40;;;;;;;;;;6216061;23;20004;-52
2021/06/16 11:45:28;;;;;;;1.13;0.50;;;;;;;;;;6216025;23;20005;-52
2021/06/16 11:47:56;;;;;;;2.37;0.33;;;;;;;;;;6216491;23;20015;-52
2021/06/16 11:50:33;;;;;;;3.40;0.47;;;;;;;;;;6215993;23;20021;-52
2021/06/16 11:53:01;;;;;;;1.60;0.37;;;;;;;;;;6216410;23;20352;-51
2021/06/16 11:55:44;;;;;;;3.67;0.40;;;;;;;;;;6216136;23;20367;-52
2021/06/16 11:58:24;;;;;;;1.63;0.43;;;;;;;;;;6215911;23;20016;-52
2021/06/16 12:00:52;;;;;;;1.77;0.63;;;;;;;;;;6215529;23;20384;-52
2021/06/16 12:03:19;;;;;;;0.80;0.40;;;;;;;;;;6216104;23;20012;-52
2021/06/16 12:05:46;;;;;;;2.47;0.80;;;;;;;;;;6216040;23;20014;-52
2021/06/16 12:08:22;;;;;;;2.37;0.30;;;;;;;;;;6216076;23;20072;-53
2021/06/16 12:10:49;;;;;;;0.43;0.20;;;;;;;;;;6215970;23;20001;-52
2021/06/16 12:13:16;;;;;;;0.50;0.30;;;;;;;;;;6215862;23;20130;-52
2021/06/16 12:15:43;;;;;;;0.40;0.30;;;;;;;;;;6215748;23;20382;-52
2021/06/16 12:18:15;;;;;;;0.30;0.20;;;;;;;;;;6215793;23;20336;-52
2021/06/16 12:20:49;;;;;;;2.10;0.53;;;;;;;;;;6215779;23;20014;-52
2021/06/16 12:23:19;;;;;;;2.17;0.30;;;;;;;;;;6215738;23;20083;-52
2021/06/16 12:25:46;;;;;;;3.03;0.93;;;;;;;;;;6215661;23;20005;-52
2021/06/16 12:28:15;;;;;;;2.00;0.70;;;;;;;;;;6215818;23;20004;-53
2021/06/16 12:30:42;;;;;;;4.67;0.70;;;;;;;;;;6215630;23;20001;-52
2021/06/16 12:33:14;;;;;;;3.00;0.60;;;;;;;;;;6215733;23;20020;-52
2021/06/16 12:35:53;;;;;;;1.73;0.73;;;;;;;;;;6215660;23;20004;-52
2021/06/16 12:38:33;;;;;;;1.60;0.80;;;;;;;;;;6215585;23;20021;-52
2021/06/16 12:41:00;;;;;;;1.27;0.60;;;;;;;;;;6215632;23;20051;-52
2021/06/16 12:43:28;;;;;;;2.63;0.80;;;;;;;;;;6215500;23;20008;-52
2021/06/16 12:45:58;;;;;;;1.87;1.00;;;;;;;;;;6215495;23;20004;-52
2021/06/16 12:48:28;;;;;;;6.53;0.93;;;;;;;;;;6215339;23;20447;-52
2021/06/16 12:51:03;;;;;;;2.40;1.00;;;;;;;;;;6215352;23;20055;-52
2021/06/16 12:53:30;;;;;;;1.53;0.90;;;;;;;;;;6215182;23;20087;-52
2021/06/16 12:56:00;;;;;;;2.47;1.07;;;;;;;;;;6215502;23;20004;-52
2021/06/16 12:58:27;;;;;;;3.23;1.17;;;;;;;;;;6215317;23;20020;-52
2021/06/16 13:01:07;;;;;;;2.80;1.20;;;;;;;;;;6214898;23;20074;-52
2021/06/16 13:03:45;;;;;;;2.50;1.10;;;;;;;;;;6215360;23;20383;-52
2021/06/16 13:06:12;;;;;;;2.17;1.17;;;;;;;;;;6215766;23;20008;-53
2021/06/16 13:08:40;;;;;;;1.83;0.90;;;;;;;;;;6215383;23;20008;-52
2021/06/16 13:11:22;;;;;;;3.47;0.93;;;;;;;;;;6215423;23;20332;-52
2021/06/16 13:13:50;;;;;;;1.60;0.57;;;;;;;;;;6215372;23;20502;-52
2021/06/16 13:16:27;;;;;;;1.07;0.53;;;;;;;;;;6215204;23;20393;-52
2021/06/16 13:18:54;;;;;;;1.90;0.83;;;;;;;;;;6215446;23;20027;-52
2021/06/16 13:21:21;;;;;;;5.13;1.10;;;;;;;;;;6215404;23;20000;-53
2021/06/16 13:23:52;;;;;;;4.17;0.73;;;;;;;;;;6215262;23;20306;-53
2021/06/16 13:26:19;;;;;;;2.07;0.60;;;;;;;;;;6215275;23;20012;-52
2021/06/16 13:28:46;;;;;;;1.10;0.67;;;;;;;;;;6215138;23;20566;-52
2021/06/16 13:31:31;;;;;;;5.53;1.07;;;;;;;;;;6215326;23;20020;-52
2021/06/16 13:34:09;;;;;;;1.55;0.80;;;;;;;;;;6215199;23;20103;-52
2021/06/16 13:36:35;;;;;;;2.83;1.03;;;;;;;;;;6214892;23;20012;-52
2021/06/16 13:39:03;;;;;;;2.33;0.90;;;;;;;;;;6215085;23;20017;-52
2021/06/16 13:41:30;;;;;;;2.50;0.90;;;;;;;;;;6215120;23;20432;-52
2021/06/16 13:43:57;;;;;;;2.57;0.80;;;;;;;;;;6215002;23;20052;-52
2021/06/16 13:46:24;;;;;;;4.90;0.90;;;;;;;;;;6215235;23;20028;-52
2021/06/16 13:48:51;;;;;;;1.60;0.90;;;;;;;;;;6214982;23;20000;-52
2021/06/16 13:51:18;;;;;;;9.03;1.30;;;;;;;;;;6215341;23;20008;-52
2021/06/16 13:53:45;;;;;;;4.37;0.97;;;;;;;;;;6215022;23;20319;-52
2021/06/16 13:56:11;;;;;;;2.50;0.90;;;;;;;;;;6214965;23;20068;-52
2021/06/16 13:58:38;;;;;;;3.63;1.00;;;;;;;;;;6215008;23;20439;-52
2021/06/16 14:01:06;;;;;;;1.43;0.60;;;;;;;;;;6214888;23;20039;-52
2021/06/16 14:03:33;;;;;;;2.27;0.90;;;;;;;;;;6215033;23;20008;-52
2021/06/16 14:06:07;;;;;;;3.43;1.07;;;;;;;;;;6215900;23;20001;-53
2021/06/16 14:08:53;;;;;;;2.37;0.90;;;;;;;;;;6216794;23;20004;-53
2021/06/16 14:11:23;;;;;;;6.43;1.07;;;;;;;;;;6216813;23;20230;-52
2021/06/16 14:14:01;;;;;;;0.90;0.50;;;;;;;;;;6216428;23;20005;-52
2021/06/16 14:16:28;;;;;;;1.70;0.73;;;;;;;;;;6216824;23;20036;-52
2021/06/16 14:18:55;;;;;;;3.13;1.00;;;;;;;;;;6216645;23;20005;-52
2021/06/16 14:21:21;;;;;;;5.50;0.90;;;;;;;;;;6216591;23;20320;-52
2021/06/16 14:23:48;;;;;;;3.33;0.97;;;;;;;;;;6216502;23;20008;-52
2021/06/16 14:26:15;;;;;;;0.97;0.50;;;;;;;;;;6216812;23;20371;-52
2021/06/16 14:28:42;;;;;;;2.70;0.70;;;;;;;;;;6216776;23;20004;-53
2021/06/16 14:31:08;;;;;;;4.00;0.80;;;;;;;;;;6216950;23;20000;-52
2021/06/16 14:33:35;;;;;;;5.07;0.87;;;;;;;;;;6216734;23;20005;-52
2021/06/16 14:36:03;;;;;;;7.87;1.20;;;;;;;;;;6216279;23;20051;-52
2021/06/16 14:38:29;;;;;;;2.73;0.57;;;;;;;;;;6217134;23;20013;-52
2021/06/16 14:40:56;;;;;;;4.47;1.13;;;;;;;;;;6216781;23;20007;-52
2021/06/16 14:43:23;;;;;;;3.23;0.80;;;;;;;;;;6216747;23;20015;-52
2021/06/16 14:45:50;;;;;;;3.20;0.90;;;;;;;;;;6216658;23;20005;-52
2021/06/16 14:48:17;;;;;;;1.63;0.80;;;;;;;;;;6216561;23;20012;-53
2021/06/16 14:50:43;;;;;;;2.37;0.70;;;;;;;;;;6216539;23;20008;-52
2021/06/16 14:53:10;;;;;;;1.30;0.70;;;;;;;;;;6216660;23;20000;-52
2021/06/16 14:55:37;;;;;;;2.23;0.67;;;;;;;;;;6216644;23;20417;-52